sensor_id;sensor_type;location;lat;lon;timestamp;pressure;altitude;pressure_sealevel;temperature;humidity
55755;BME280;41674;52.290;-1.474;2023-03-26T00:02:17;99667.96;;;10.09;75.10
55755;BME280;41674;52.290;-1.474;2023-03-26T00:04:47;99663.24;;;10.08;75.02
55755;BME280;41674;52.290;-1.474;2023-03-26T00:07:17;99659.91;;;9.87;74.27
55755;BME280;41674;52.290;-1.474;2023-03-26T00:09:46;99656.67;;;9.80;75.19
55755;BME280;41674;52.290;-1.474;2023-03-26T00:14:45;99655.61;;;9.59;73.78
55755;BME280;41674;52.290;-1.474;2023-03-26T00:17:15;99652.85;;;9.62;72.94
55755;BME280;41674;52.290;-1.474;2023-03-26T00:19:44;99649.53;;;10.05;72.30
55755;BME280;41674;52.290;-1.474;2023-03-26T00:22:14;99643.88;;;9.95;71.99
55755;BME280;41674;52.290;-1.474;2023-03-26T00:24:43;99642.92;;;10.08;71.64
55755;BME280;41674;52.290;-1.474;2023-03-26T00:27:18;99640.77;;;10.26;70.15
55755;BME280;41674;52.290;-1.474;2023-03-26T00:29:42;99639.59;;;10.45;68.32
55755;BME280;41674;52.290;-1.474;2023-03-26T00:32:14;99639.18;;;9.71;71.68
55755;BME280;41674;52.290;-1.474;2023-03-26T00:34:47;99637.91;;;10.20;69.94
55755;BME280;41674;52.290;-1.474;2023-03-26T00:37:11;99637.68;;;10.08;70.72
55755;BME280;41674;52.290;-1.474;2023-03-26T00:39:41;99633.07;;;10.12;72.64
55755;BME280;41674;52.290;-1.474;2023-03-26T00:42:11;99625.64;;;10.66;70.05
55755;BME280;41674;52.290;-1.474;2023-03-26T00:44:40;99623.20;;;10.75;70.63
55755;BME280;41674;52.290;-1.474;2023-03-26T00:47:10;99629.06;;;11.04;69.70
55755;BME280;41674;52.290;-1.474;2023-03-26T00:49:39;99629.13;;;11.00;69.58
55755;BME280;41674;52.290;-1.474;2023-03-26T00:52:09;99627.85;;;11.12;68.97
55755;BME280;41674;52.290;-1.474;2023-03-26T00:54:39;99623.15;;;11.01;70.92
55755;BME280;41674;52.290;-1.474;2023-03-26T00:57:08;99622.83;;;10.55;72.64
55755;BME280;41674;52.290;-1.474;2023-03-26T00:59:38;99620.99;;;10.47;73.19
55755;BME280;41674;52.290;-1.474;2023-03-26T01:02:12;99621.51;;;9.70;76.93
55755;BME280;41674;52.290;-1.474;2023-03-26T01:04:37;99623.33;;;10.12;75.15
55755;BME280;41674;52.290;-1.474;2023-03-26T01:07:10;99618.84;;;10.43;74.70
55755;BME280;41674;52.290;-1.474;2023-03-26T01:09:39;99617.94;;;10.10;75.10
55755;BME280;41674;52.290;-1.474;2023-03-26T01:12:09;99614.17;;;9.77;76.28
55755;BME280;41674;52.290;-1.474;2023-03-26T01:14:36;99611.70;;;9.99;75.66
55755;BME280;41674;52.290;-1.474;2023-03-26T01:17:06;99608.20;;;10.12;74.89
55755;BME280;41674;52.290;-1.474;2023-03-26T01:19:39;99607.02;;;10.08;76.08
55755;BME280;41674;52.290;-1.474;2023-03-26T01:22:05;99611.84;;;9.91;76.51
55755;BME280;41674;52.290;-1.474;2023-03-26T01:24:39;99608.69;;;9.98;76.48
55755;BME280;41674;52.290;-1.474;2023-03-26T01:27:11;99605.76;;;9.89;76.95
55755;BME280;41674;52.290;-1.474;2023-03-26T01:29:40;99605.92;;;9.51;78.58
55755;BME280;41674;52.290;-1.474;2023-03-26T01:32:08;99600.35;;;9.86;78.94
55755;BME280;41674;52.290;-1.474;2023-03-26T01:34:42;99595.72;;;9.97;77.93
55755;BME280;41674;52.290;-1.474;2023-03-26T01:37:09;99592.65;;;9.72;78.75
55755;BME280;41674;52.290;-1.474;2023-03-26T01:39:36;99584.43;;;9.53;79.65
55755;BME280;41674;52.290;-1.474;2023-03-26T01:42:04;99582.72;;;10.12;77.93
55755;BME280;41674;52.290;-1.474;2023-03-26T01:44:34;99583.55;;;9.27;80.87
55755;BME280;41674;52.290;-1.474;2023-03-26T01:47:00;99582.73;;;9.99;77.97
55755;BME280;41674;52.290;-1.474;2023-03-26T01:49:31;99579.79;;;9.99;78.39
55755;BME280;41674;52.290;-1.474;2023-03-26T01:51:59;99576.28;;;9.41;80.06
55755;BME280;41674;52.290;-1.474;2023-03-26T01:54:30;99572.76;;;9.05;80.85
55755;BME280;41674;52.290;-1.474;2023-03-26T01:57:04;99568.49;;;9.48;80.95
55755;BME280;41674;52.290;-1.474;2023-03-26T01:59:38;99563.95;;;9.98;79.03
55755;BME280;41674;52.290;-1.474;2023-03-26T02:02:01;99559.14;;;9.89;78.69
55755;BME280;41674;52.290;-1.474;2023-03-26T02:04:34;99557.90;;;9.78;79.94
55755;BME280;41674;52.290;-1.474;2023-03-26T02:07:01;99554.22;;;9.40;80.45
55755;BME280;41674;52.290;-1.474;2023-03-26T02:09:29;99548.92;;;9.64;80.77
55755;BME280;41674;52.290;-1.474;2023-03-26T02:11:56;99543.01;;;8.94;82.10
55755;BME280;41674;52.290;-1.474;2023-03-26T02:14:28;99537.07;;;9.74;80.14
55755;BME280;41674;52.290;-1.474;2023-03-26T02:16:55;99532.64;;;10.36;78.74
55755;BME280;41674;52.290;-1.474;2023-03-26T02:19:24;99530.36;;;8.22;83.82
55755;BME280;41674;52.290;-1.474;2023-03-26T02:21:54;99522.29;;;9.96;79.36
55755;BME280;41674;52.290;-1.474;2023-03-26T02:24:24;99521.62;;;10.26;78.20
55755;BME280;41674;52.290;-1.474;2023-03-26T02:26:53;99519.40;;;10.31;78.09
55755;BME280;41674;52.290;-1.474;2023-03-26T02:29:23;99520.08;;;9.34;80.22
55755;BME280;41674;52.290;-1.474;2023-03-26T02:31:52;99516.97;;;10.02;79.05
55755;BME280;41674;52.290;-1.474;2023-03-26T02:34:22;99513.29;;;9.95;79.48
55755;BME280;41674;52.290;-1.474;2023-03-26T02:36:51;99510.99;;;9.49;80.93
55755;BME280;41674;52.290;-1.474;2023-03-26T02:39:21;99508.37;;;9.89;78.83
55755;BME280;41674;52.290;-1.474;2023-03-26T02:41:51;99507.95;;;9.67;80.04
55755;BME280;41674;52.290;-1.474;2023-03-26T02:44:20;99508.14;;;9.37;82.77
55755;BME280;41674;52.290;-1.474;2023-03-26T02:46:49;99503.78;;;10.09;79.31
55755;BME280;41674;52.290;-1.474;2023-03-26T02:49:19;99502.19;;;9.74;80.31
55755;BME280;41674;52.290;-1.474;2023-03-26T02:51:48;99504.54;;;8.90;84.03
55755;BME280;41674;52.290;-1.474;2023-03-26T02:54:18;99497.37;;;9.50;82.34
55755;BME280;41674;52.290;-1.474;2023-03-26T02:56:48;99494.83;;;9.61;82.49
55755;BME280;41674;52.290;-1.474;2023-03-26T02:59:17;99490.51;;;9.34;81.73
55755;BME280;41674;52.290;-1.474;2023-03-26T03:01:47;99487.58;;;9.57;81.71
55755;BME280;41674;52.290;-1.474;2023-03-26T03:04:16;99483.55;;;9.54;81.24
55755;BME280;41674;52.290;-1.474;2023-03-26T03:06:46;99487.20;;;8.00;88.94
55755;BME280;41674;52.290;-1.474;2023-03-26T03:09:21;99493.52;;;6.52;95.51
55755;BME280;41674;52.290;-1.474;2023-03-26T03:11:45;99491.24;;;7.04;94.95
55755;BME280;41674;52.290;-1.474;2023-03-26T03:14:15;99489.10;;;8.53;88.47
55755;BME280;41674;52.290;-1.474;2023-03-26T03:16:44;99490.36;;;9.00;86.76
55755;BME280;41674;52.290;-1.474;2023-03-26T03:19:14;99491.10;;;7.85;92.30
55755;BME280;41674;52.290;-1.474;2023-03-26T03:21:44;99492.98;;;7.89;91.90
55755;BME280;41674;52.290;-1.474;2023-03-26T03:24:13;99497.95;;;7.44;93.63
55755;BME280;41674;52.290;-1.474;2023-03-26T03:26:43;99502.19;;;6.71;97.93
55755;BME280;41674;52.290;-1.474;2023-03-26T03:29:12;99502.47;;;6.79;100.00
55755;BME280;41674;52.290;-1.474;2023-03-26T03:31:42;99502.87;;;6.72;99.60
55755;BME280;41674;52.290;-1.474;2023-03-26T03:34:11;99499.62;;;6.19;100.00
55755;BME280;41674;52.290;-1.474;2023-03-26T03:36:41;99494.09;;;6.78;100.00
55755;BME280;41674;52.290;-1.474;2023-03-26T03:39:11;99493.36;;;7.65;96.45
55755;BME280;41674;52.290;-1.474;2023-03-26T03:41:40;99486.21;;;8.27;91.60
55755;BME280;41674;52.290;-1.474;2023-03-26T03:44:15;99490.56;;;8.77;89.45
55755;BME280;41674;52.290;-1.474;2023-03-26T03:46:39;99489.14;;;9.18;90.04
55755;BME280;41674;52.290;-1.474;2023-03-26T03:49:14;99488.46;;;9.10;88.64
55755;BME280;41674;52.290;-1.474;2023-03-26T03:51:39;99487.34;;;8.78;89.84
55755;BME280;41674;52.290;-1.474;2023-03-26T03:54:08;99487.98;;;9.07;88.22
55755;BME280;41674;52.290;-1.474;2023-03-26T03:56:37;99488.36;;;8.12;92.56
55755;BME280;41674;52.290;-1.474;2023-03-26T03:59:07;99483.00;;;8.21;92.33
55755;BME280;41674;52.290;-1.474;2023-03-26T04:01:36;99484.93;;;8.16;95.20
55755;BME280;41674;52.290;-1.474;2023-03-26T04:04:06;99490.20;;;6.69;100.00
55755;BME280;41674;52.290;-1.474;2023-03-26T04:06:36;99481.48;;;7.58;97.96
55755;BME280;41674;52.290;-1.474;2023-03-26T04:09:06;99482.36;;;7.41;99.08
55755;BME280;41674;52.290;-1.474;2023-03-26T04:11:35;99483.83;;;7.11;99.87
55755;BME280;41674;52.290;-1.474;2023-03-26T04:14:05;99484.08;;;6.62;100.00
55755;BME280;41674;52.290;-1.474;2023-03-26T04:16:34;99473.75;;;8.10;95.23
55755;BME280;41674;52.290;-1.474;2023-03-26T04:19:04;99479.67;;;6.25;100.00
55755;BME280;41674;52.290;-1.474;2023-03-26T04:21:33;99478.04;;;7.40;98.79
55755;BME280;41674;52.290;-1.474;2023-03-26T04:24:03;99473.75;;;8.76;91.47
55755;BME280;41674;52.290;-1.474;2023-03-26T04:26:33;99472.57;;;9.12;88.60
55755;BME280;41674;52.290;-1.474;2023-03-26T04:29:04;99476.59;;;8.44;91.32
55755;BME280;41674;52.290;-1.474;2023-03-26T04:31:32;99473.35;;;8.53;90.91
55755;BME280;41674;52.290;-1.474;2023-03-26T04:34:06;99465.43;;;9.26;87.72
55755;BME280;41674;52.290;-1.474;2023-03-26T04:36:32;99465.52;;;9.20;88.99
55755;BME280;41674;52.290;-1.474;2023-03-26T04:39:02;99455.63;;;9.75;86.89
55755;BME280;41674;52.290;-1.474;2023-03-26T04:41:30;99448.36;;;9.92;85.16
55755;BME280;41674;52.290;-1.474;2023-03-26T04:44:00;99448.03;;;10.04;84.53
55755;BME280;41674;52.290;-1.474;2023-03-26T04:46:30;99453.67;;;9.92;84.89
55755;BME280;41674;52.290;-1.474;2023-03-26T04:49:00;99455.29;;;10.52;83.15
55755;BME280;41674;52.290;-1.474;2023-03-26T04:51:34;99456.77;;;9.76;84.77
55755;BME280;41674;52.290;-1.474;2023-03-26T04:53:59;99458.53;;;9.92;83.22
55755;BME280;41674;52.290;-1.474;2023-03-26T04:56:37;99460.20;;;10.39;82.76
55755;BME280;41674;52.290;-1.474;2023-03-26T04:58:59;99465.73;;;7.49;94.82
55755;BME280;41674;52.290;-1.474;2023-03-26T05:01:27;99472.06;;;7.28;96.66
55755;BME280;41674;52.290;-1.474;2023-03-26T05:03:57;99476.32;;;7.14;99.00
55755;BME280;41674;52.290;-1.474;2023-03-26T05:06:27;99469.33;;;7.84;95.58
55755;BME280;41674;52.290;-1.474;2023-03-26T05:08:56;99470.05;;;8.53;91.14
55755;BME280;41674;52.290;-1.474;2023-03-26T05:11:26;99469.60;;;9.18;89.39
55755;BME280;41674;52.290;-1.474;2023-03-26T05:13:56;99466.75;;;8.28;90.89
55755;BME280;41674;52.290;-1.474;2023-03-26T05:16:25;99467.60;;;8.72;89.49
55755;BME280;41674;52.290;-1.474;2023-03-26T05:18:55;99468.44;;;8.89;88.29
55755;BME280;41674;52.290;-1.474;2023-03-26T05:21:25;99466.87;;;8.94;88.39
55755;BME280;41674;52.290;-1.474;2023-03-26T05:23:54;99467.73;;;8.95;88.05
55755;BME280;41674;52.290;-1.474;2023-03-26T05:26:24;99469.30;;;9.08;87.31
55755;BME280;41674;52.290;-1.474;2023-03-26T05:28:53;99470.72;;;8.35;88.90
55755;BME280;41674;52.290;-1.474;2023-03-26T05:31:23;99469.39;;;9.61;86.12
55755;BME280;41674;52.290;-1.474;2023-03-26T05:33:52;99475.72;;;9.12;87.72
55755;BME280;41674;52.290;-1.474;2023-03-26T05:36:23;99474.16;;;8.80;88.54
55755;BME280;41674;52.290;-1.474;2023-03-26T05:38:52;99475.36;;;8.43;90.64
55755;BME280;41674;52.290;-1.474;2023-03-26T05:41:21;99479.41;;;8.18;91.35
55755;BME280;41674;52.290;-1.474;2023-03-26T05:43:51;99483.22;;;8.33;91.22
55755;BME280;41674;52.290;-1.474;2023-03-26T05:46:21;99495.95;;;7.49;94.27
55755;BME280;41674;52.290;-1.474;2023-03-26T05:48:50;99498.08;;;7.93;92.22
55755;BME280;41674;52.290;-1.474;2023-03-26T05:51:21;99501.62;;;7.89;94.65
55755;BME280;41674;52.290;-1.474;2023-03-26T05:53:49;99509.26;;;7.08;97.18
55755;BME280;41674;52.290;-1.474;2023-03-26T05:56:19;99504.46;;;7.74;95.65
55755;BME280;41674;52.290;-1.474;2023-03-26T05:58:48;99511.95;;;7.25;97.70
55755;BME280;41674;52.290;-1.474;2023-03-26T06:01:17;99512.34;;;6.86;100.00
55755;BME280;41674;52.290;-1.474;2023-03-26T06:03:47;99516.37;;;7.52;96.80
55755;BME280;41674;52.290;-1.474;2023-03-26T06:06:18;99522.23;;;7.01;100.00
55755;BME280;41674;52.290;-1.474;2023-03-26T06:08:48;99523.62;;;7.48;97.59
55755;BME280;41674;52.290;-1.474;2023-03-26T06:11:16;99528.96;;;7.45;98.15
55755;BME280;41674;52.290;-1.474;2023-03-26T06:13:46;99532.57;;;7.23;97.91
55755;BME280;41674;52.290;-1.474;2023-03-26T06:16:14;99532.94;;;7.39;96.78
55755;BME280;41674;52.290;-1.474;2023-03-26T06:18:44;99539.07;;;6.76;99.93
55755;BME280;41674;52.290;-1.474;2023-03-26T06:21:13;99545.13;;;6.99;100.00
55755;BME280;41674;52.290;-1.474;2023-03-26T06:23:43;99549.18;;;7.30;97.33
55755;BME280;41674;52.290;-1.474;2023-03-26T06:26:13;99550.45;;;7.19;98.04
55755;BME280;41674;52.290;-1.474;2023-03-26T06:28:42;99551.87;;;6.58;99.79
55755;BME280;41674;52.290;-1.474;2023-03-26T06:31:12;99556.29;;;7.09;99.56
55755;BME280;41674;52.290;-1.474;2023-03-26T06:33:42;99559.65;;;6.96;99.15
55755;BME280;41674;52.290;-1.474;2023-03-26T06:36:11;99562.60;;;7.15;95.96
55755;BME280;41674;52.290;-1.474;2023-03-26T06:38:41;99565.45;;;7.06;96.61
55755;BME280;41674;52.290;-1.474;2023-03-26T06:41:11;99566.42;;;7.64;95.65
55755;BME280;41674;52.290;-1.474;2023-03-26T06:43:40;99570.63;;;6.92;96.84
55755;BME280;41674;52.290;-1.474;2023-03-26T06:46:10;99573.50;;;6.88;99.35
55755;BME280;41674;52.290;-1.474;2023-03-26T06:48:40;99580.02;;;5.23;100.00
55755;BME280;41674;52.290;-1.474;2023-03-26T06:51:09;99583.43;;;6.35;100.00
55755;BME280;41674;52.290;-1.474;2023-03-26T06:53:38;99590.34;;;5.89;100.00
55755;BME280;41674;52.290;-1.474;2023-03-26T06:56:09;99591.03;;;6.32;100.00
55755;BME280;41674;52.290;-1.474;2023-03-26T06:58:38;99596.63;;;6.44;100.00
55755;BME280;41674;52.290;-1.474;2023-03-26T07:01:06;99603.73;;;7.50;96.46
55755;BME280;41674;52.290;-1.474;2023-03-26T07:03:36;99603.01;;;6.41;100.00
55755;BME280;41674;52.290;-1.474;2023-03-26T07:06:06;99613.51;;;5.50;100.00
55755;BME280;41674;52.290;-1.474;2023-03-26T07:08:35;99615.92;;;5.74;100.00
55755;BME280;41674;52.290;-1.474;2023-03-26T07:11:05;99622.28;;;5.70;100.00
55755;BME280;41674;52.290;-1.474;2023-03-26T07:13:34;99628.78;;;5.22;100.00
55755;BME280;41674;52.290;-1.474;2023-03-26T07:16:03;99631.50;;;5.52;100.00
55755;BME280;41674;52.290;-1.474;2023-03-26T07:18:33;99631.13;;;6.70;100.00
55755;BME280;41674;52.290;-1.474;2023-03-26T07:21:03;99636.46;;;6.29;100.00
55755;BME280;41674;52.290;-1.474;2023-03-26T07:23:32;99645.33;;;6.33;100.00
55755;BME280;41674;52.290;-1.474;2023-03-26T07:26:12;99653.29;;;5.03;100.00
55755;BME280;41674;52.290;-1.474;2023-03-26T07:28:34;99656.91;;;5.66;100.00
55755;BME280;41674;52.290;-1.474;2023-03-26T07:31:06;99658.07;;;5.69;100.00
55755;BME280;41674;52.290;-1.474;2023-03-26T07:33:36;99658.83;;;6.24;100.00
55755;BME280;41674;52.290;-1.474;2023-03-26T07:36:06;99663.33;;;6.75;100.00
55755;BME280;41674;52.290;-1.474;2023-03-26T07:38:37;99671.23;;;7.77;97.02
55755;BME280;41674;52.290;-1.474;2023-03-26T07:41:05;99677.83;;;6.12;100.00
55755;BME280;41674;52.290;-1.474;2023-03-26T07:43:37;99677.96;;;6.83;100.00
55755;BME280;41674;52.290;-1.474;2023-03-26T07:45:57;99689.58;;;5.78;100.00
55755;BME280;41674;52.290;-1.474;2023-03-26T07:48:35;99693.96;;;5.14;100.00
55755;BME280;41674;52.290;-1.474;2023-03-26T07:50:57;99700.23;;;5.87;100.00
55755;BME280;41674;52.290;-1.474;2023-03-26T07:53:26;99705.76;;;5.48;100.00
55755;BME280;41674;52.290;-1.474;2023-03-26T07:56:04;99711.17;;;5.22;100.00
55755;BME280;41674;52.290;-1.474;2023-03-26T07:58:38;99714.67;;;5.80;100.00
55755;BME280;41674;52.290;-1.474;2023-03-26T08:00:57;99724.89;;;4.62;100.00
55755;BME280;41674;52.290;-1.474;2023-03-26T08:03:30;99724.47;;;5.65;100.00
55755;BME280;41674;52.290;-1.474;2023-03-26T08:06:04;99731.53;;;5.37;100.00
55755;BME280;41674;52.290;-1.474;2023-03-26T08:11:02;99739.38;;;5.29;100.00
55755;BME280;41674;52.290;-1.474;2023-03-26T08:13:26;99748.47;;;4.69;100.00
55755;BME280;41674;52.290;-1.474;2023-03-26T08:15:59;99749.50;;;4.79;100.00
55755;BME280;41674;52.290;-1.474;2023-03-26T08:18:30;99754.37;;;4.85;100.00
55755;BME280;41674;52.290;-1.474;2023-03-26T08:20:54;99756.11;;;5.08;100.00
55755;BME280;41674;52.290;-1.474;2023-03-26T08:23:26;99762.57;;;5.41;100.00
55755;BME280;41674;52.290;-1.474;2023-03-26T08:25:58;99768.89;;;5.32;100.00
55755;BME280;41674;52.290;-1.474;2023-03-26T08:28:29;99775.55;;;5.92;100.00
55755;BME280;41674;52.290;-1.474;2023-03-26T08:30:49;99781.92;;;5.04;100.00
55755;BME280;41674;52.290;-1.474;2023-03-26T08:33:20;99784.26;;;5.62;100.00
55755;BME280;41674;52.290;-1.474;2023-03-26T08:35:49;99794.55;;;5.60;100.00
55755;BME280;41674;52.290;-1.474;2023-03-26T08:38:19;99801.66;;;5.64;100.00
55755;BME280;41674;52.290;-1.474;2023-03-26T08:55:51;99850.50;;;5.51;100.00
55755;BME280;41674;52.290;-1.474;2023-03-26T09:01:06;99862.75;;;5.23;100.00
55755;BME280;41674;52.290;-1.474;2023-03-26T09:05:53;99877.07;;;5.07;100.00
55755;BME280;41674;52.290;-1.474;2023-03-26T09:08:29;99882.68;;;4.56;100.00
55755;BME280;41674;52.290;-1.474;2023-03-26T09:10:51;99894.51;;;4.20;100.00
55755;BME280;41674;52.290;-1.474;2023-03-26T09:13:27;99897.32;;;4.81;100.00
55755;BME280;41674;52.290;-1.474;2023-03-26T09:15:53;99907.48;;;4.71;100.00
55755;BME280;41674;52.290;-1.474;2023-03-26T09:20:50;99913.23;;;5.30;100.00
55755;BME280;41674;52.290;-1.474;2023-03-26T09:25:52;99914.60;;;5.25;100.00
55755;BME280;41674;52.290;-1.474;2023-03-26T09:30:55;99924.35;;;4.97;100.00
55755;BME280;41674;52.290;-1.474;2023-03-26T09:33:26;99929.82;;;5.08;100.00
55755;BME280;41674;52.290;-1.474;2023-03-26T09:35:50;99934.63;;;4.11;100.00
55755;BME280;41674;52.290;-1.474;2023-03-26T09:38:16;99943.23;;;4.60;100.00
55755;BME280;41674;52.290;-1.474;2023-03-26T09:40:45;99950.56;;;4.66;100.00
55755;BME280;41674;52.290;-1.474;2023-03-26T09:43:25;99961.67;;;4.76;100.00
55755;BME280;41674;52.290;-1.474;2023-03-26T09:45:48;99967.90;;;4.69;100.00
55755;BME280;41674;52.290;-1.474;2023-03-26T09:48:18;99969.82;;;4.96;100.00
55755;BME280;41674;52.290;-1.474;2023-03-26T09:50:48;99979.04;;;4.54;100.00
55755;BME280;41674;52.290;-1.474;2023-03-26T09:53:24;99986.37;;;4.24;100.00
55755;BME280;41674;52.290;-1.474;2023-03-26T09:55:51;99994.00;;;4.88;100.00
55755;BME280;41674;52.290;-1.474;2023-03-26T09:58:18;99996.07;;;4.80;100.00
55755;BME280;41674;52.290;-1.474;2023-03-26T10:00:43;100006.08;;;5.73;100.00
55755;BME280;41674;52.290;-1.474;2023-03-26T10:03:17;100008.88;;;5.46;100.00
55755;BME280;41674;52.290;-1.474;2023-03-26T10:05:47;100017.20;;;4.82;100.00
55755;BME280;41674;52.290;-1.474;2023-03-26T10:08:18;100022.69;;;5.04;100.00
55755;BME280;41674;52.290;-1.474;2023-03-26T10:10:41;100024.93;;;5.14;100.00
55755;BME280;41674;52.290;-1.474;2023-03-26T10:13:14;100036.70;;;4.73;100.00
55755;BME280;41674;52.290;-1.474;2023-03-26T10:15:48;100044.00;;;4.91;100.00
55755;BME280;41674;52.290;-1.474;2023-03-26T10:18:13;100050.39;;;4.50;100.00
55755;BME280;41674;52.290;-1.474;2023-03-26T10:20:44;100052.23;;;5.67;100.00
55755;BME280;41674;52.290;-1.474;2023-03-26T10:23:16;100056.61;;;6.38;98.63
55755;BME280;41674;52.290;-1.474;2023-03-26T10:25:45;100064.60;;;6.49;98.00
55755;BME280;41674;52.290;-1.474;2023-03-26T10:30:43;100076.12;;;6.54;95.31
55755;BME280;41674;52.290;-1.474;2023-03-26T10:33:12;100084.71;;;5.31;100.00
55755;BME280;41674;52.290;-1.474;2023-03-26T10:35:41;100096.69;;;5.82;99.95
55755;BME280;41674;52.290;-1.474;2023-03-26T10:38:11;100101.90;;;6.18;97.51
55755;BME280;41674;52.290;-1.474;2023-03-26T10:40:33;100101.55;;;5.74;98.70
55755;BME280;41674;52.290;-1.474;2023-03-26T10:43:16;100111.04;;;5.69;97.96
55755;BME280;41674;52.290;-1.474;2023-03-26T10:45:38;100113.31;;;5.82;95.71
55755;BME280;41674;52.290;-1.474;2023-03-26T10:48:16;100120.47;;;5.83;97.33
55755;BME280;41674;52.290;-1.474;2023-03-26T10:50:35;100136.24;;;6.37;94.66
55755;BME280;41674;52.290;-1.474;2023-03-26T10:53:01;100136.28;;;5.04;97.51
55755;BME280;41674;52.290;-1.474;2023-03-26T10:55:36;100141.88;;;6.37;96.36
55755;BME280;41674;52.290;-1.474;2023-03-26T10:57:59;100147.73;;;5.54;100.00
55755;BME280;41674;52.290;-1.474;2023-03-26T11:00:28;100157.29;;;5.65;100.00
55755;BME280;41674;52.290;-1.474;2023-03-26T11:03:15;100168.15;;;6.18;97.93
55755;BME280;41674;52.290;-1.474;2023-03-26T11:08:00;100184.76;;;4.78;100.00
55755;BME280;41674;52.290;-1.474;2023-03-26T11:13:01;100196.18;;;5.45;100.00
55755;BME280;41674;52.290;-1.474;2023-03-26T11:15:28;100203.02;;;5.03;99.12
55755;BME280;41674;52.290;-1.474;2023-03-26T11:18:03;100200.37;;;6.01;97.27
55755;BME280;41674;52.290;-1.474;2023-03-26T11:20:32;100211.73;;;5.58;98.69
55755;BME280;41674;52.290;-1.474;2023-03-26T11:23:04;100214.38;;;5.86;96.68
55755;BME280;41674;52.290;-1.474;2023-03-26T11:25:33;100214.39;;;6.35;95.47
55755;BME280;41674;52.290;-1.474;2023-03-26T11:28:05;100221.34;;;5.88;96.24
55755;BME280;41674;52.290;-1.474;2023-03-26T11:30:32;100223.21;;;5.84;95.66
55755;BME280;41674;52.290;-1.474;2023-03-26T11:32:54;100229.74;;;5.72;94.61
55755;BME280;41674;52.290;-1.474;2023-03-26T11:35:26;100238.37;;;5.89;95.57
55755;BME280;41674;52.290;-1.474;2023-03-26T11:37:53;100241.93;;;6.11;93.63
55755;BME280;41674;52.290;-1.474;2023-03-26T11:40:24;100249.52;;;6.52;93.90
55755;BME280;41674;52.290;-1.474;2023-03-26T11:42:55;100252.66;;;6.58;92.66
55755;BME280;41674;52.290;-1.474;2023-03-26T11:45:23;100253.64;;;6.24;91.82
55755;BME280;41674;52.290;-1.474;2023-03-26T11:47:51;100256.45;;;6.66;91.39
55755;BME280;41674;52.290;-1.474;2023-03-26T11:50:22;100265.07;;;6.31;88.89
55755;BME280;41674;52.290;-1.474;2023-03-26T11:52:49;100266.67;;;6.34;90.48
55755;BME280;41674;52.290;-1.474;2023-03-26T11:55:19;100271.67;;;7.28;87.91
55755;BME280;41674;52.290;-1.474;2023-03-26T11:57:53;100282.97;;;6.87;87.00
55755;BME280;41674;52.290;-1.474;2023-03-26T12:00:19;100284.52;;;6.39;89.03
55755;BME280;41674;52.290;-1.474;2023-03-26T12:02:48;100292.23;;;6.65;87.15
55755;BME280;41674;52.290;-1.474;2023-03-26T12:05:19;100295.62;;;7.32;85.03
55755;BME280;41674;52.290;-1.474;2023-03-26T12:07:51;100301.96;;;7.67;85.53
55755;BME280;41674;52.290;-1.474;2023-03-26T12:10:24;100308.77;;;8.03;81.84
55755;BME280;41674;52.290;-1.474;2023-03-26T12:12:46;100310.50;;;8.15;81.61
55755;BME280;41674;52.290;-1.474;2023-03-26T12:15:17;100314.96;;;7.67;78.43
55755;BME280;41674;52.290;-1.474;2023-03-26T12:17:52;100321.11;;;8.50;81.57
55755;BME280;41674;52.290;-1.474;2023-03-26T12:20:33;100329.29;;;8.67;77.57
55755;BME280;41674;52.290;-1.474;2023-03-26T12:22:44;100344.13;;;7.90;79.75
55755;BME280;41674;52.290;-1.474;2023-03-26T12:25:16;100345.17;;;7.96;78.64
55755;BME280;41674;52.290;-1.474;2023-03-26T12:27:50;100351.21;;;7.95;79.95
55755;BME280;41674;52.290;-1.474;2023-03-26T12:30:19;100352.21;;;8.65;75.84
55755;BME280;41674;52.290;-1.474;2023-03-26T12:32:42;100359.17;;;8.21;79.38
55755;BME280;41674;52.290;-1.474;2023-03-26T12:35:15;100361.68;;;9.00;77.55
55755;BME280;41674;52.290;-1.474;2023-03-26T12:37:41;100369.13;;;8.17;77.17
55755;BME280;41674;52.290;-1.474;2023-03-26T12:40:27;100376.11;;;7.39;77.95
55755;BME280;41674;52.290;-1.474;2023-03-26T12:42:41;100385.04;;;7.60;78.66
55755;BME280;41674;52.290;-1.474;2023-03-26T12:45:12;100399.08;;;6.34;79.55
55755;BME280;41674;52.290;-1.474;2023-03-26T12:47:40;100398.78;;;7.36;78.48
55755;BME280;41674;52.290;-1.474;2023-03-26T12:50:12;100405.89;;;6.13;79.63
55755;BME280;41674;52.290;-1.474;2023-03-26T12:52:52;100408.35;;;6.18;82.37
55755;BME280;41674;52.290;-1.474;2023-03-26T12:55:21;100414.17;;;6.20;81.02
55755;BME280;41674;52.290;-1.474;2023-03-26T12:57:44;100414.80;;;6.57;79.42
55755;BME280;41674;52.290;-1.474;2023-03-26T13:00:24;100419.26;;;6.98;77.96
55755;BME280;41674;52.290;-1.474;2023-03-26T13:02:56;100418.87;;;7.03;78.92
55755;BME280;41674;52.290;-1.474;2023-03-26T13:05:17;100419.13;;;7.40;81.32
55755;BME280;41674;52.290;-1.474;2023-03-26T13:07:50;100420.66;;;8.13;75.68
55755;BME280;41674;52.290;-1.474;2023-03-26T13:12:42;100429.38;;;7.36;78.87
55755;BME280;41674;52.290;-1.474;2023-03-26T13:15:15;100439.04;;;6.71;79.93
55755;BME280;41674;52.290;-1.474;2023-03-26T13:17:38;100439.98;;;6.99;78.94
55755;BME280;41674;52.290;-1.474;2023-03-26T13:20:09;100447.70;;;7.91;76.07
55755;BME280;41674;52.290;-1.474;2023-03-26T13:22:41;100452.05;;;7.45;74.70
55755;BME280;41674;52.290;-1.474;2023-03-26T13:25:14;100466.36;;;7.27;75.57
55755;BME280;41674;52.290;-1.474;2023-03-26T13:27:42;100471.45;;;6.71;76.33
55755;BME280;41674;52.290;-1.474;2023-03-26T13:30:13;100473.66;;;7.36;74.65
55755;BME280;41674;52.290;-1.474;2023-03-26T13:32:47;100475.88;;;7.63;74.61
55755;BME280;41674;52.290;-1.474;2023-03-26T13:35:12;100483.71;;;7.56;74.12
55755;BME280;41674;52.290;-1.474;2023-03-26T13:37:37;100490.22;;;7.34;72.71
55755;BME280;41674;52.290;-1.474;2023-03-26T13:40:13;100496.35;;;7.59;71.56
55755;BME280;41674;52.290;-1.474;2023-03-26T13:42:40;100497.33;;;7.65;69.91
55755;BME280;41674;52.290;-1.474;2023-03-26T13:45:05;100503.35;;;7.35;73.57
55755;BME280;41674;52.290;-1.474;2023-03-26T13:47:33;100515.79;;;6.51;77.70